Time;durP1;ratioP1;P1;durP2;ratioP2;P2;SDS_P1;SDS_P2;PMS_P1;PMS_P2;Temp;Humidity;BMP_temperature;BMP_pressure;BME280_temperature;BME280_humidity;BME280_pressure;Samples;Min_cycle;Max_cycle;Signal;HPM_P1;HPM_P2
2021/07/29 00:00:57;;;;;;;4.00;3.60;;;19.70;99.90;;;;;;4983374;28;20432;-73
2021/07/29 00:03:23;;;;;;;4.37;3.73;;;19.70;99.90;;;;;;4984102;28;20186;-72
2021/07/29 00:05:50;;;;;;;4.00;3.60;;;19.60;99.90;;;;;;4989390;28;21048;-72
2021/07/29 00:08:19;;;;;;;6.23;3.57;;;19.40;99.90;;;;;;4986282;28;20208;-72
2021/07/29 00:10:45;;;;;;;4.33;3.67;;;19.30;99.90;;;;;;4985475;28;20464;-72
2021/07/29 00:13:11;;;;;;;4.10;3.70;;;19.20;99.90;;;;;;4988942;28;20465;-73
2021/07/29 00:15:37;;;;;;;5.73;3.73;;;19.40;99.90;;;;;;4986815;28;20456;-73
2021/07/29 00:20:28;;;;;;;4.57;3.70;;;19.40;99.90;;;;;;4985450;28;20190;-73
2021/07/29 00:22:58;;;;;;;4.40;3.93;;;19.50;99.90;;;;;;4986721;28;20222;-73
2021/07/29 00:25:25;;;;;;;4.17;3.33;;;19.40;99.90;;;;;;4983662;28;20843;-74
2021/07/29 00:27:52;;;;;;;3.77;3.47;;;19.50;99.90;;;;;;4985282;28;20436;-73
2021/07/29 00:30:19;;;;;;;4.43;3.50;;;19.50;99.90;;;;;;4985265;28;20445;-73
2021/07/29 00:32:45;;;;;;;4.80;4.00;;;19.40;99.90;;;;;;4988054;28;20468;-73
2021/07/29 00:35:15;;;;;;;4.73;3.50;;;19.30;99.90;;;;;;4986451;28;20530;-73
2021/07/29 00:37:42;;;;;;;3.63;3.33;;;19.40;99.90;;;;;;4984565;28;20429;-73
2021/07/29 00:40:08;;;;;;;4.77;3.47;;;19.40;99.90;;;;;;4986854;28;20452;-73
2021/07/29 00:42:34;;;;;;;4.80;3.70;;;19.20;99.90;;;;;;4983881;28;20456;-73
2021/07/29 00:45:00;;;;;;;4.87;3.97;;;19.30;99.90;;;;;;4983005;28;21246;-73
2021/07/29 00:47:25;;;;;;;4.20;3.80;;;19.40;99.90;;;;;;4986664;28;20215;-73
2021/07/29 00:49:51;;;;;;;4.87;4.47;;;19.50;99.90;;;;;;4986532;28;20987;-73
2021/07/29 00:52:21;;;;;;;4.43;3.50;;;19.60;99.90;;;;;;4987203;28;20192;-73
2021/07/29 00:54:51;;;;;;;4.30;3.77;;;19.40;99.90;;;;;;4990086;28;20414;-73
2021/07/29 00:57:17;;;;;;;4.47;3.67;;;19.20;99.90;;;;;;4986998;28;20432;-73
2021/07/29 00:59:43;;;;;;;4.77;3.57;;;19.10;99.90;;;;;;4984451;28;20560;-73
2021/07/29 01:02:09;;;;;;;4.10;3.50;;;19.30;99.90;;;;;;4992322;28;20603;-73
2021/07/29 01:04:35;;;;;;;5.07;3.43;;;19.20;99.90;;;;;;4983209;28;20206;-73
2021/07/29 01:07:01;;;;;;;4.50;3.60;;;19.40;99.90;;;;;;4967334;28;20454;-73
2021/07/29 01:09:28;;;;;;;5.43;3.83;;;19.60;99.90;;;;;;4985557;28;20437;-73
2021/07/29 01:11:53;;;;;;;4.27;3.60;;;19.60;99.90;;;;;;4984917;28;20437;-73
2021/07/29 01:14:19;;;;;;;3.40;3.10;;;19.70;99.90;;;;;;4983694;28;20559;-73
2021/07/29 01:16:45;;;;;;;4.20;3.80;;;19.80;99.90;;;;;;4989827;28;20186;-73
2021/07/29 01:19:12;;;;;;;4.47;3.87;;;19.80;99.90;;;;;;4982576;28;20194;-73
2021/07/29 01:21:38;;;;;;;3.73;3.30;;;19.80;99.90;;;;;;4985864;28;20201;-73
2021/07/29 01:24:04;;;;;;;4.70;3.50;;;19.70;99.90;;;;;;4981495;28;20503;-73
2021/07/29 01:26:31;;;;;;;8.30;4.43;;;19.80;99.90;;;;;;4986722;28;20467;-73
2021/07/29 01:28:58;;;;;;;5.53;3.80;;;19.80;99.90;;;;;;4982362;28;20476;-73
2021/07/29 01:31:24;;;;;;;4.43;3.57;;;19.90;99.90;;;;;;4983254;28;20507;-73
2021/07/29 01:33:51;;;;;;;6.07;4.40;;;19.90;99.90;;;;;;4985421;28;20519;-73
2021/07/29 01:36:17;;;;;;;6.30;3.80;;;19.90;99.90;;;;;;4984110;28;20452;-73
2021/07/29 01:38:42;;;;;;;4.10;3.70;;;19.80;99.90;;;;;;4984205;28;20896;-73
2021/07/29 01:41:08;;;;;;;5.60;3.60;;;19.40;99.90;;;;;;4986639;28;20192;-73
2021/07/29 01:43:34;;;;;;;5.50;3.70;;;19.40;99.90;;;;;;4983468;28;20649;-73
2021/07/29 01:46:00;;;;;;;4.70;3.67;;;19.30;99.90;;;;;;4982690;28;20231;-73
2021/07/29 01:48:27;;;;;;;4.60;4.03;;;19.40;99.90;;;;;;4987196;28;20208;-73
2021/07/29 01:50:53;;;;;;;4.83;3.80;;;19.30;99.90;;;;;;4982883;28;20444;-72
2021/07/29 01:53:27;;;;;;;4.00;3.60;;;19.20;99.90;;;;;;4988828;28;20471;-72
2021/07/29 01:55:53;;;;;;;4.97;3.83;;;19.30;99.90;;;;;;4984096;28;21035;-72
2021/07/29 01:58:19;;;;;;;3.90;3.50;;;19.30;99.90;;;;;;4983440;28;20236;-72
2021/07/29 02:00:47;;;;;;;4.20;3.50;;;19.10;99.90;;;;;;4988373;28;20185;-72
2021/07/29 02:03:13;;;;;;;5.57;3.87;;;19.20;99.90;;;;;;4983613;28;20208;-73
2021/07/29 02:05:39;;;;;;;6.90;3.70;;;19.20;99.90;;;;;;4986437;28;20457;-72
2021/07/29 02:08:05;;;;;;;4.67;3.57;;;19.00;99.90;;;;;;4987639;28;20193;-72
2021/07/29 02:10:31;;;;;;;4.40;3.10;;;19.20;99.90;;;;;;4991389;28;20445;-72
2021/07/29 02:12:58;;;;;;;4.10;3.70;;;19.30;99.90;;;;;;5010052;28;20463;-73
2021/07/29 02:15:24;;;;;;;6.50;3.70;;;19.30;99.90;;;;;;5012762;28;20205;-73
2021/07/29 02:17:53;;;;;;;4.43;3.27;;;19.20;99.90;;;;;;5008198;28;20484;-71
2021/07/29 02:20:19;;;;;;;4.33;3.40;;;19.00;99.90;;;;;;5001984;28;20465;-72
2021/07/29 02:22:44;;;;;;;5.73;4.53;;;19.00;99.90;;;;;;4985666;28;21708;-73
2021/07/29 02:25:12;;;;;;;5.00;3.53;;;19.00;99.90;;;;;;4980269;28;20218;-73
2021/07/29 02:27:37;;;;;;;4.30;3.50;;;18.90;99.90;;;;;;4983693;28;20178;-73
2021/07/29 02:30:03;;;;;;;4.30;3.33;;;19.20;99.90;;;;;;4985098;28;20450;-73
2021/07/29 02:32:29;;;;;;;5.60;3.50;;;19.10;99.90;;;;;;4979996;28;20190;-73
2021/07/29 02:34:55;;;;;;;4.40;3.23;;;19.00;99.90;;;;;;4980803;28;21187;-73
2021/07/29 02:37:21;;;;;;;4.33;3.60;;;18.80;99.90;;;;;;4984085;28;20542;-72
2021/07/29 02:39:47;;;;;;;4.93;3.40;;;18.90;99.90;;;;;;4986664;28;20555;-73
2021/07/29 02:42:14;;;;;;;4.57;3.17;;;19.00;99.90;;;;;;4985326;28;20445;-72
2021/07/29 02:44:40;;;;;;;4.93;3.70;;;19.00;99.90;;;;;;4986924;28;20461;-72
2021/07/29 02:47:06;;;;;;;4.10;3.40;;;19.10;99.90;;;;;;4988645;28;20539;-72
2021/07/29 02:49:32;;;;;;;3.97;3.57;;;19.00;99.90;;;;;;4981881;28;20495;-72
2021/07/29 02:51:58;;;;;;;4.80;3.30;;;19.10;99.90;;;;;;4982643;28;20476;-72
2021/07/29 02:54:23;;;;;;;3.77;3.30;;;19.10;99.90;;;;;;4987273;28;20791;-73
2021/07/29 02:56:51;;;;;;;3.90;3.37;;;19.00;99.90;;;;;;4984682;28;20535;-73
2021/07/29 02:59:16;;;;;;;3.30;3.00;;;18.90;99.90;;;;;;4985632;28;20567;-73
2021/07/29 03:01:42;;;;;;;8.00;3.77;;;19.00;99.90;;;;;;4985707;28;20441;-73
2021/07/29 03:04:08;;;;;;;4.17;3.77;;;19.00;99.90;;;;;;4986814;28;20247;-73
2021/07/29 03:06:34;;;;;;;3.83;3.23;;;18.90;99.90;;;;;;4989543;28;20233;-73
2021/07/29 03:09:00;;;;;;;3.87;3.50;;;19.00;99.90;;;;;;4987870;28;20312;-73
2021/07/29 03:11:26;;;;;;;3.93;2.97;;;19.00;99.90;;;;;;4987380;28;20220;-72
2021/07/29 03:13:52;;;;;;;4.20;3.30;;;19.00;99.90;;;;;;4986208;28;20472;-72
2021/07/29 03:16:17;;;;;;;6.37;4.00;;;19.10;99.90;;;;;;4983937;28;20472;-73
2021/07/29 03:18:43;;;;;;;5.30;3.60;;;19.10;99.90;;;;;;4991993;28;20205;-72
2021/07/29 03:21:09;;;;;;;3.90;3.50;;;19.20;99.90;;;;;;4985584;28;20182;-73
2021/07/29 03:23:35;;;;;;;4.00;3.67;;;19.00;99.90;;;;;;4987577;28;20202;-72
2021/07/29 03:26:01;;;;;;;4.40;3.43;;;19.10;99.90;;;;;;4988848;28;20464;-73
2021/07/29 03:28:27;;;;;;;8.03;4.47;;;19.10;99.90;;;;;;4984790;28;20879;-72
2021/07/29 03:30:53;;;;;;;7.30;3.90;;;19.20;99.90;;;;;;4986191;28;20476;-73
2021/07/29 03:33:20;;;;;;;5.43;3.70;;;19.30;99.90;;;;;;4988035;28;20214;-73
2021/07/29 03:35:46;;;;;;;3.93;3.43;;;19.20;99.90;;;;;;4985638;28;22167;-73
2021/07/29 03:38:12;;;;;;;4.00;3.70;;;19.30;99.90;;;;;;4985418;28;20519;-73
2021/07/29 03:40:38;;;;;;;6.53;3.50;;;19.30;99.90;;;;;;4985049;28;20657;-72
2021/07/29 03:43:08;;;;;;;5.10;3.57;;;19.30;99.90;;;;;;4984889;28;20270;-72
2021/07/29 03:45:40;;;;;;;5.20;3.97;;;19.30;99.90;;;;;;4985160;28;20464;-73
2021/07/29 03:48:06;;;;;;;3.80;3.50;;;19.40;99.90;;;;;;4986232;28;20958;-73
2021/07/29 03:50:32;;;;;;;5.73;4.10;;;19.40;99.90;;;;;;4985021;28;20867;-73
2021/07/29 03:52:58;;;;;;;5.00;3.53;;;19.40;99.90;;;;;;4988103;28;20555;-73
2021/07/29 03:55:24;;;;;;;6.63;4.07;;;19.40;99.90;;;;;;4984921;28;20527;-73
2021/07/29 03:57:50;;;;;;;4.20;3.80;;;19.30;99.90;;;;;;4987428;28;20528;-72
2021/07/29 04:00:16;;;;;;;5.17;3.80;;;19.40;99.90;;;;;;4986211;28;20182;-73
2021/07/29 04:02:42;;;;;;;4.40;3.60;;;19.40;99.90;;;;;;4986557;28;20258;-72
2021/07/29 04:05:08;;;;;;;4.30;3.80;;;19.40;99.90;;;;;;4990744;28;20533;-72
2021/07/29 04:07:35;;;;;;;6.13;3.53;;;19.30;99.90;;;;;;4985225;28;20198;-73
2021/07/29 04:10:00;;;;;;;4.97;4.33;;;19.30;99.90;;;;;;4984282;28;20515;-73
2021/07/29 04:12:26;;;;;;;4.90;4.03;;;19.30;99.90;;;;;;4985601;28;20445;-73
2021/07/29 04:14:52;;;;;;;7.90;4.67;;;19.30;99.90;;;;;;4987015;28;20214;-73
2021/07/29 04:17:18;;;;;;;5.90;3.93;;;19.40;99.90;;;;;;4988579;28;20185;-73
2021/07/29 04:19:44;;;;;;;4.87;4.10;;;19.40;99.90;;;;;;4990960;28;20297;-73
2021/07/29 04:22:10;;;;;;;4.40;3.87;;;19.40;99.90;;;;;;4985606;28;20444;-72
2021/07/29 04:24:36;;;;;;;8.00;4.30;;;19.40;99.90;;;;;;4983647;28;21548;-73
2021/07/29 04:27:02;;;;;;;5.77;4.40;;;19.30;99.90;;;;;;4982669;28;20623;-72
2021/07/29 04:29:31;;;;;;;5.77;4.40;;;19.40;99.90;;;;;;4981885;28;20539;-72
2021/07/29 04:31:57;;;;;;;5.73;4.30;;;19.40;99.90;;;;;;4983556;28;20816;-72
2021/07/29 04:34:23;;;;;;;5.20;4.30;;;19.40;99.90;;;;;;4983183;28;20469;-72
2021/07/29 04:36:48;;;;;;;5.23;3.67;;;19.40;99.90;;;;;;4981419;28;20212;-71
2021/07/29 04:39:14;;;;;;;6.10;3.67;;;19.40;99.90;;;;;;4965901;28;20232;-72
2021/07/29 04:41:42;;;;;;;5.33;4.10;;;19.40;99.90;;;;;;4983159;28;20221;-72
2021/07/29 04:44:08;;;;;;;4.47;3.60;;;19.40;99.90;;;;;;4980346;28;20197;-72
2021/07/29 04:46:38;;;;;;;6.70;4.30;;;19.40;99.90;;;;;;4983076;28;20846;-72
2021/07/29 04:49:06;;;;;;;8.00;4.73;;;19.50;99.90;;;;;;4978840;28;20813;-72
2021/07/29 04:51:39;;;;;;;6.20;4.10;;;19.50;99.90;;;;;;4979885;28;20440;-73
2021/07/29 04:54:05;;;;;;;7.30;4.53;;;19.50;99.90;;;;;;4980612;28;20473;-73
2021/07/29 04:56:31;;;;;;;5.33;4.07;;;19.50;99.90;;;;;;4979704;28;20472;-72
2021/07/29 04:58:57;;;;;;;4.87;4.37;;;19.50;99.90;;;;;;4980616;28;20531;-72
2021/07/29 05:01:22;;;;;;;6.50;4.10;;;19.40;99.90;;;;;;4980195;28;20991;-73
2021/07/29 05:03:48;;;;;;;4.23;3.83;;;19.50;99.90;;;;;;4982670;28;20194;-73
2021/07/29 05:06:14;;;;;;;6.60;3.87;;;19.50;99.90;;;;;;4983449;28;20581;-72
2021/07/29 05:08:43;;;;;;;5.43;4.17;;;19.50;99.90;;;;;;4981911;28;20461;-72
2021/07/29 05:11:10;;;;;;;4.57;4.17;;;19.60;99.90;;;;;;4981231;28;20189;-72
2021/07/29 05:13:37;;;;;;;4.57;4.10;;;19.50;99.90;;;;;;4981324;28;20534;-72
2021/07/29 05:16:09;;;;;;;4.20;3.80;;;19.50;99.90;;;;;;4978102;28;20472;-72
2021/07/29 05:18:35;;;;;;;5.40;3.80;;;19.50;99.90;;;;;;4978198;28;20536;-73
2021/07/29 05:21:08;;;;;;;5.67;4.30;;;19.50;99.90;;;;;;4981901;28;20433;-73
2021/07/29 05:23:34;;;;;;;6.63;4.37;;;19.40;99.90;;;;;;4980363;28;20433;-72
2021/07/29 05:26:00;;;;;;;5.00;4.07;;;19.40;99.90;;;;;;4979935;28;20891;-72
2021/07/29 05:28:26;;;;;;;7.07;5.20;;;19.50;99.90;;;;;;4976528;28;20514;-72
2021/07/29 05:30:52;;;;;;;7.50;5.00;;;19.60;99.90;;;;;;4979098;28;20284;-72
2021/07/29 05:33:18;;;;;;;5.70;4.77;;;19.60;99.90;;;;;;4980976;28;21245;-73
2021/07/29 05:35:44;;;;;;;5.20;4.20;;;19.70;99.90;;;;;;4977678;28;20250;-73
2021/07/29 05:38:09;;;;;;;5.00;4.03;;;19.70;99.90;;;;;;4983515;28;20682;-73
2021/07/29 05:40:36;;;;;;;6.30;4.73;;;19.60;99.90;;;;;;4980367;28;21131;-72
2021/07/29 05:43:01;;;;;;;4.33;3.93;;;19.70;99.90;;;;;;4981485;28;20263;-72
2021/07/29 05:45:32;;;;;;;4.50;4.10;;;19.70;99.90;;;;;;4984049;28;20476;-72
2021/07/29 05:47:58;;;;;;;4.70;4.07;;;19.80;99.90;;;;;;4975770;28;20695;-72
2021/07/29 05:50:23;;;;;;;5.70;3.63;;;19.80;99.90;;;;;;4974655;28;20453;-72
2021/07/29 05:52:49;;;;;;;5.50;4.10;;;19.90;99.90;;;;;;4981334;28;20471;-72
2021/07/29 05:55:21;;;;;;;5.90;4.40;;;19.90;99.90;;;;;;4976942;28;20217;-73
2021/07/29 05:57:46;;;;;;;4.70;4.13;;;20.00;99.90;;;;;;4980620;28;20204;-73
2021/07/29 06:00:12;;;;;;;5.80;5.30;;;20.00;99.90;;;;;;4984681;28;22134;-73
2021/07/29 06:02:38;;;;;;;5.30;3.80;;;20.10;99.90;;;;;;4982702;28;20704;-73
2021/07/29 06:05:04;;;;;;;5.00;4.50;;;20.10;99.90;;;;;;4974415;28;20463;-73
2021/07/29 06:07:30;;;;;;;5.80;4.20;;;19.90;99.90;;;;;;4975771;28;20197;-72
2021/07/29 06:09:56;;;;;;;4.80;3.70;;;20.00;99.90;;;;;;4975163;28;20456;-72
2021/07/29 06:12:27;;;;;;;4.30;3.90;;;20.10;99.90;;;;;;4981034;28;20984;-73
2021/07/29 06:14:53;;;;;;;7.33;4.87;;;20.10;99.90;;;;;;4981608;28;20480;-73
2021/07/29 06:17:24;;;;;;;3.87;3.47;;;20.10;99.90;;;;;;4974271;28;20492;-73
2021/07/29 06:19:49;;;;;;;5.23;3.97;;;20.10;99.90;;;;;;4975359;28;20443;-73
2021/07/29 06:22:16;;;;;;;4.20;3.80;;;20.00;99.90;;;;;;4972876;28;20453;-73
2021/07/29 06:24:41;;;;;;;4.17;3.50;;;20.00;99.90;;;;;;4972987;28;20684;-73
2021/07/29 06:27:09;;;;;;;4.40;3.93;;;19.90;99.90;;;;;;4970054;28;20449;-73
2021/07/29 06:29:35;;;;;;;5.73;4.20;;;20.10;99.90;;;;;;4971211;28;20499;-71
2021/07/29 06:32:01;;;;;;;5.57;3.87;;;20.10;99.90;;;;;;4974014;28;24000;-73
2021/07/29 06:34:26;;;;;;;4.97;3.70;;;20.00;99.90;;;;;;4975321;28;20968;-71
2021/07/29 06:36:52;;;;;;;3.60;3.30;;;19.90;99.90;;;;;;4984044;28;20178;-73
2021/07/29 06:39:18;;;;;;;3.80;3.00;;;19.90;99.90;;;;;;4977883;28;20204;-73
2021/07/29 06:41:43;;;;;;;7.37;3.70;;;19.90;99.90;;;;;;4979093;28;20304;-71
2021/07/29 06:44:09;;;;;;;3.50;2.87;;;19.90;99.90;;;;;;4974533;28;20190;-71
2021/07/29 06:46:37;;;;;;;5.33;3.37;;;20.00;99.90;;;;;;4978742;28;20261;-72
2021/07/29 06:49:03;;;;;;;8.93;3.23;;;20.00;99.90;;;;;;4975091;28;20214;-71
2021/07/29 06:51:29;;;;;;;4.27;3.30;;;20.10;99.90;;;;;;4974721;28;20820;-71
2021/07/29 06:53:55;;;;;;;4.27;3.87;;;20.10;99.90;;;;;;4957943;28;20476;-71
2021/07/29 06:56:20;;;;;;;9.63;3.00;;;20.10;99.90;;;;;;4976299;28;20209;-72
2021/07/29 06:58:46;;;;;;;7.93;3.10;;;20.20;99.90;;;;;;4975304;28;20193;-72
2021/07/29 07:01:11;;;;;;;5.13;3.90;;;20.20;99.90;;;;;;4970981;28;20194;-72
2021/07/29 07:03:37;;;;;;;5.30;3.30;;;20.30;99.90;;;;;;4983403;28;20201;-72
2021/07/29 07:06:04;;;;;;;5.30;3.03;;;20.30;99.90;;;;;;4981298;28;20288;-72
2021/07/29 07:08:30;;;;;;;3.43;2.90;;;20.50;99.90;;;;;;4972275;28;20194;-71
2021/07/29 07:10:56;;;;;;;4.97;3.30;;;20.60;99.90;;;;;;4976953;28;20444;-71
2021/07/29 07:13:22;;;;;;;3.13;2.80;;;20.70;99.90;;;;;;4980977;28;20329;-72
2021/07/29 07:15:47;;;;;;;4.37;2.93;;;20.60;99.90;;;;;;4981927;28;20206;-71
2021/07/29 07:18:14;;;;;;;3.73;3.27;;;20.50;99.90;;;;;;4982445;28;20284;-72
2021/07/29 07:20:39;;;;;;;5.10;3.17;;;20.50;99.90;;;;;;4982048;28;20196;-71
2021/07/29 07:23:05;;;;;;;4.83;3.03;;;20.40;99.90;;;;;;4975908;28;20480;-73
2021/07/29 07:25:33;;;;;;;4.73;3.97;;;20.50;99.90;;;;;;4970575;28;20296;-73
2021/07/29 07:28:00;;;;;;;5.07;3.07;;;20.50;99.90;;;;;;4955039;28;20194;-72
2021/07/29 07:30:25;;;;;;;3.77;3.20;;;20.50;99.90;;;;;;4970104;28;20506;-73
2021/07/29 07:32:51;;;;;;;3.37;3.07;;;20.50;99.90;;;;;;4952417;28;20453;-74
2021/07/29 07:35:16;;;;;;;3.80;2.83;;;20.40;99.90;;;;;;4965812;28;20225;-73
2021/07/29 07:37:42;;;;;;;4.17;3.13;;;20.40;99.90;;;;;;4968605;28;20213;-72
2021/07/29 07:40:09;;;;;;;3.30;3.00;;;20.50;99.90;;;;;;4972598;28;20244;-73
2021/07/29 07:42:35;;;;;;;5.40;2.60;;;20.60;99.90;;;;;;4976773;28;21122;-73
2021/07/29 07:45:00;;;;;;;6.10;3.53;;;20.60;99.90;;;;;;4971267;28;20477;-73
2021/07/29 07:47:28;;;;;;;5.03;3.77;;;20.70;99.90;;;;;;4975483;28;20256;-73
2021/07/29 07:49:55;;;;;;;5.20;3.33;;;20.70;99.90;;;;;;4971092;28;20193;-73
2021/07/29 07:52:20;;;;;;;4.37;2.90;;;20.70;99.90;;;;;;4964205;28;20445;-73
2021/07/29 07:54:46;;;;;;;3.10;2.63;;;20.70;99.90;;;;;;4968449;28;20483;-73
2021/07/29 07:57:12;;;;;;;5.73;2.60;;;20.70;99.90;;;;;;4966090;28;20188;-75
2021/07/29 07:59:38;;;;;;;4.40;3.27;;;20.60;99.90;;;;;;4965607;28;20194;-74
2021/07/29 08:02:12;;;;;;;4.13;3.17;;;20.60;99.90;;;;;;4967152;28;20185;-75
2021/07/29 08:04:37;;;;;;;4.40;3.00;;;20.70;99.90;;;;;;4967583;28;20522;-73
2021/07/29 08:07:05;;;;;;;4.23;3.20;;;20.80;99.90;;;;;;4966410;28;20786;-73
2021/07/29 08:09:30;;;;;;;3.50;2.73;;;20.70;99.90;;;;;;4972865;28;20201;-72
2021/07/29 08:11:56;;;;;;;3.60;2.60;;;20.80;99.90;;;;;;4977683;28;20455;-72
2021/07/29 08:14:22;;;;;;;5.53;3.13;;;20.80;99.90;;;;;;4973641;28;20210;-72
2021/07/29 08:16:47;;;;;;;3.27;2.70;;;20.90;99.90;;;;;;4976099;28;20197;-72
2021/07/29 08:19:13;;;;;;;3.17;2.87;;;21.00;99.90;;;;;;4975827;28;20186;-71
2021/07/29 08:21:39;;;;;;;2.87;2.63;;;20.90;99.90;;;;;;4976349;28;20181;-72
2021/07/29 08:24:05;;;;;;;4.70;3.57;;;20.80;99.90;;;;;;4976874;28;20280;-72
2021/07/29 08:26:30;;;;;;;3.60;3.00;;;20.90;99.90;;;;;;4979499;28;20293;-72
2021/07/29 08:28:57;;;;;;;3.57;3.27;;;20.90;99.90;;;;;;4975462;28;20462;-73
2021/07/29 08:31:23;;;;;;;3.37;2.97;;;21.00;99.90;;;;;;4975988;28;20236;-73
2021/07/29 08:33:48;;;;;;;3.23;2.93;;;21.10;99.90;;;;;;4975776;28;20464;-73
2021/07/29 08:36:16;;;;;;;3.43;3.13;;;21.10;99.90;;;;;;4977899;28;20214;-76
2021/07/29 08:38:42;;;;;;;5.10;3.10;;;21.10;99.90;;;;;;4979258;28;20220;-72
2021/07/29 08:41:09;;;;;;;3.67;3.07;;;21.10;99.90;;;;;;4973890;28;20436;-72
2021/07/29 08:43:35;;;;;;;5.83;3.53;;;21.10;99.90;;;;;;4970801;28;20445;-72
2021/07/29 08:46:04;;;;;;;3.40;3.10;;;21.20;99.90;;;;;;4974789;28;20499;-73
2021/07/29 08:48:43;;;;;;;4.90;3.10;;;21.30;99.90;;;;;;4980382;28;20457;-72
2021/07/29 08:51:09;;;;;;;5.60;3.10;;;21.30;99.90;;;;;;4977117;28;20449;-72
2021/07/29 08:53:34;;;;;;;4.40;3.27;;;21.40;99.90;;;;;;4971284;28;21582;-73
2021/07/29 08:56:00;;;;;;;3.27;2.97;;;21.50;99.90;;;;;;4979307;28;20221;-72
2021/07/29 08:58:26;;;;;;;4.87;4.47;;;21.40;99.90;;;;;;4981952;28;20188;-72
2021/07/29 09:01:09;;;;;;;3.93;3.27;;;21.50;99.90;;;;;;4976765;28;20207;-72
2021/07/29 09:03:39;;;;;;;3.47;3.03;;;21.50;99.90;;;;;;4981425;28;20620;-72
2021/07/29 09:06:07;;;;;;;4.30;3.30;;;21.50;99.90;;;;;;4977698;28;20500;-73
2021/07/29 09:08:52;;;;;;;3.43;3.07;;;21.50;99.90;;;;;;4980707;28;20441;-72
2021/07/29 09:11:37;;;;;;;3.43;3.10;;;21.60;99.90;;;;;;4948577;28;20770;-72
2021/07/29 09:14:14;;;;;;;3.57;2.83;;;21.70;99.90;;;;;;4979448;28;20469;-72
2021/07/29 09:17:04;;;;;;;5.13;4.63;;;21.80;99.90;;;;;;4984459;28;20453;-72
2021/07/29 09:19:35;;;;;;;3.33;3.03;;;21.90;99.90;;;;;;4979468;28;20449;-73
2021/07/29 09:22:05;;;;;;;3.87;3.43;;;21.90;99.90;;;;;;4980515;28;20461;-73
2021/07/29 09:24:30;;;;;;;7.10;3.17;;;22.00;99.90;;;;;;4984649;28;20437;-73
2021/07/29 09:27:00;;;;;;;3.50;3.20;;;21.90;99.90;;;;;;4988520;28;20444;-73
2021/07/29 09:29:27;;;;;;;4.07;3.40;;;21.80;99.90;;;;;;4985848;28;20189;-73
2021/07/29 09:32:09;;;;;;;3.77;3.47;;;21.70;99.90;;;;;;4988560;28;20448;-73
2021/07/29 09:34:42;;;;;;;3.33;2.97;;;21.80;99.90;;;;;;4966853;28;21010;-73
2021/07/29 09:37:08;;;;;;;4.43;3.03;;;21.80;99.90;;;;;;4979427;28;20451;-73
2021/07/29 09:39:34;;;;;;;3.70;3.30;;;21.90;99.90;;;;;;4987973;28;20433;-73
2021/07/29 09:42:21;;;;;;;7.40;3.60;;;22.00;99.90;;;;;;4989258;28;20429;-73
2021/07/29 09:44:50;;;;;;;4.30;3.33;;;22.10;99.90;;;;;;4980243;28;20552;-73
2021/07/29 09:47:20;;;;;;;6.37;3.93;;;22.00;99.90;;;;;;4981263;28;20528;-73
2021/07/29 09:49:47;;;;;;;5.93;3.37;;;22.00;99.90;;;;;;4979672;28;20464;-73
2021/07/29 09:52:14;;;;;;;4.10;3.20;;;22.00;99.90;;;;;;4980618;28;20460;-72
2021/07/29 09:54:44;;;;;;;4.60;3.70;;;22.10;99.90;;;;;;4982955;28;20998;-74
2021/07/29 09:57:11;;;;;;;5.47;3.33;;;22.00;99.90;;;;;;4981533;28;20476;-73
2021/07/29 09:59:37;;;;;;;4.00;2.97;;;22.00;99.90;;;;;;4978980;28;20445;-73
2021/07/29 10:02:04;;;;;;;2.80;2.60;;;22.10;99.90;;;;;;4978608;28;20453;-73
2021/07/29 10:04:52;;;;;;;3.10;2.60;;;22.00;99.90;;;;;;4979032;28;20472;-72
2021/07/29 10:07:25;;;;;;;4.17;3.00;;;22.10;99.90;;;;;;4982838;28;20503;-72
2021/07/29 10:09:52;;;;;;;3.20;2.90;;;22.20;99.90;;;;;;4984992;28;20450;-72
2021/07/29 10:12:21;;;;;;;5.53;4.20;;;22.20;99.90;;;;;;4986872;28;20807;-73
2021/07/29 10:14:49;;;;;;;4.80;3.37;;;22.20;99.90;;;;;;4967723;28;20534;-72
2021/07/29 10:17:16;;;;;;;3.40;3.10;;;22.30;99.90;;;;;;4983316;28;20472;-72
2021/07/29 10:20:12;;;;;;;7.20;3.20;;;22.20;99.90;;;;;;4981430;28;20448;-72
2021/07/29 10:22:38;;;;;;;4.33;3.50;;;22.40;99.90;;;;;;4984170;28;20436;-72
2021/07/29 10:25:04;;;;;;;4.20;3.80;;;22.30;99.90;;;;;;4983785;28;20473;-72
2021/07/29 10:27:30;;;;;;;4.40;3.70;;;22.40;99.90;;;;;;4982669;28;20445;-73
2021/07/29 10:30:20;;;;;;;4.40;3.73;;;22.50;99.90;;;;;;4983114;28;20451;-73
2021/07/29 10:32:51;;;;;;;3.63;3.07;;;22.50;99.90;;;;;;4984699;28;20197;-73
2021/07/29 10:35:35;;;;;;;5.10;3.43;;;22.60;99.90;;;;;;4980862;28;20468;-73
2021/07/29 10:38:01;;;;;;;3.90;3.37;;;22.60;99.90;;;;;;4985687;28;20515;-73
2021/07/29 10:40:40;;;;;;;4.73;3.70;;;22.70;99.90;;;;;;4988176;28;20428;-73
2021/07/29 10:43:24;;;;;;;3.83;3.30;;;22.70;99.90;;;;;;4986558;28;20193;-73
2021/07/29 10:45:54;;;;;;;5.50;3.37;;;22.80;99.90;;;;;;4981799;28;21053;-73
2021/07/29 10:48:39;;;;;;;3.60;3.10;;;22.80;99.90;;;;;;4987187;28;20451;-71
2021/07/29 10:51:11;;;;;;;6.03;4.27;;;23.00;99.90;;;;;;4982638;28;20468;-71
2021/07/29 10:53:41;;;;;;;4.37;3.13;;;23.20;99.90;;;;;;4986067;28;20475;-71
2021/07/29 10:56:14;;;;;;;3.80;3.30;;;23.40;99.90;;;;;;4981721;28;20462;-72
2021/07/29 10:58:43;;;;;;;4.33;2.97;;;23.40;99.90;;;;;;4983535;28;20441;-72
2021/07/29 11:01:10;;;;;;;4.40;4.00;;;23.40;99.90;;;;;;4982571;28;20442;-72
2021/07/29 11:03:45;;;;;;;5.60;3.57;;;23.50;99.90;;;;;;4975525;28;20445;-72
2021/07/29 11:06:14;;;;;;;3.73;3.13;;;23.70;99.90;;;;;;4978052;28;20468;-75
2021/07/29 11:08:42;;;;;;;3.37;3.07;;;23.80;99.90;;;;;;4976347;28;20441;-73
2021/07/29 11:11:08;;;;;;;3.40;3.10;;;23.90;99.90;;;;;;4975260;28;20440;-73
2021/07/29 11:13:37;;;;;;;3.70;3.40;;;23.80;99.90;;;;;;4970638;28;20880;-71
2021/07/29 11:16:03;;;;;;;3.77;3.37;;;23.80;99.90;;;;;;4981233;28;20209;-71
2021/07/29 11:18:29;;;;;;;4.20;3.40;;;23.70;99.90;;;;;;4981246;28;20820;-71
2021/07/29 11:20:55;;;;;;;3.53;3.23;;;23.90;99.90;;;;;;4979565;28;20455;-71
2021/07/29 11:23:37;;;;;;;3.57;3.27;;;24.00;99.90;;;;;;4985298;28;20197;-71
2021/07/29 11:26:04;;;;;;;3.50;3.20;;;24.10;99.90;;;;;;4983210;28;20210;-71
2021/07/29 11:28:31;;;;;;;4.43;3.37;;;24.20;99.90;;;;;;4984683;28;20451;-72
2021/07/29 11:30:57;;;;;;;3.70;3.40;;;24.30;99.90;;;;;;4986244;28;20527;-71
2021/07/29 11:33:25;;;;;;;5.93;3.40;;;24.20;99.90;;;;;;4982457;28;20527;-72
2021/07/29 11:35:52;;;;;;;4.60;3.77;;;24.10;99.90;;;;;;4983513;28;21254;-71
2021/07/29 11:38:22;;;;;;;5.20;3.60;;;24.00;99.90;;;;;;4982657;28;20539;-71
2021/07/29 11:40:58;;;;;;;3.77;3.40;;;24.00;99.90;;;;;;4983874;28;20433;-70
2021/07/29 11:43:25;;;;;;;3.80;3.23;;;24.10;99.90;;;;;;4986543;28;20444;-71
2021/07/29 11:45:51;;;;;;;4.03;3.57;;;23.90;99.90;;;;;;4984463;28;20452;-71
2021/07/29 11:48:24;;;;;;;5.87;3.83;;;23.90;99.90;;;;;;4978880;28;20445;-72
2021/07/29 11:50:51;;;;;;;3.53;3.23;;;24.10;99.90;;;;;;4984972;28;20468;-72
2021/07/29 11:53:17;;;;;;;3.53;3.23;;;24.30;99.90;;;;;;4982460;28;20542;-73
2021/07/29 11:55:56;;;;;;;3.53;3.23;;;24.30;99.90;;;;;;4983236;28;20476;-72
2021/07/29 11:58:22;;;;;;;4.70;4.03;;;24.50;99.90;;;;;;4982785;28;20429;-72
2021/07/29 12:00:51;;;;;;;5.17;3.40;;;24.50;99.90;;;;;;4981602;28;20502;-72
2021/07/29 12:03:26;;;;;;;3.83;3.53;;;24.60;99.90;;;;;;4978722;28;20831;-72
2021/07/29 12:05:56;;;;;;;3.60;2.93;;;25.10;99.90;;;;;;4982101;28;20476;-72
2021/07/29 12:08:22;;;;;;;3.93;3.50;;;25.70;99.90;;;;;;4978422;28;20823;-72
2021/07/29 12:10:53;;;;;;;3.80;3.50;;;26.30;99.90;;;;;;4986436;28;20444;-72
2021/07/29 12:13:20;;;;;;;5.17;3.67;;;26.30;99.90;;;;;;4983126;28;21140;-72
2021/07/29 12:15:51;;;;;;;3.90;3.50;;;26.20;99.90;;;;;;4977255;28;20496;-71
2021/07/29 12:18:21;;;;;;;6.20;3.63;;;26.10;99.90;;;;;;4965363;28;21076;-72
2021/07/29 12:20:53;;;;;;;3.83;2.97;;;25.90;99.90;;;;;;4982617;28;20854;-71
2021/07/29 12:23:20;;;;;;;3.60;3.30;;;26.70;99.90;;;;;;4981846;28;20445;-72
2021/07/29 12:25:47;;;;;;;3.10;2.90;;;27.30;99.90;;;;;;4986104;28;20451;-72
2021/07/29 12:28:14;;;;;;;4.17;3.47;;;27.90;99.90;;;;;;4978667;28;20484;-72
2021/07/29 12:30:43;;;;;;;3.83;3.53;;;28.30;99.90;;;;;;4985854;28;20528;-72
2021/07/29 12:33:18;;;;;;;7.97;3.37;;;29.60;99.90;;;;;;4981470;28;20495;-72
2021/07/29 12:35:57;;;;;;;3.70;3.40;;;30.20;96.80;;;;;;4983427;28;20488;-72
2021/07/29 12:38:36;;;;;;;3.63;3.33;;;28.90;94.10;;;;;;4981394;28;20452;-72
2021/07/29 12:41:04;;;;;;;3.70;3.17;;;28.20;95.20;;;;;;4984776;28;20425;-72
2021/07/29 12:43:31;;;;;;;3.90;3.33;;;28.30;95.10;;;;;;4981831;28;20457;-72
2021/07/29 12:45:58;;;;;;;3.50;3.20;;;29.00;94.10;;;;;;4983168;28;20860;-72
2021/07/29 12:48:26;;;;;;;3.70;3.43;;;29.40;92.60;;;;;;4981806;28;20437;-72
2021/07/29 12:50:53;;;;;;;3.27;2.97;;;30.10;91.40;;;;;;4983883;28;20445;-72
2021/07/29 12:53:19;;;;;;;4.37;3.37;;;30.10;91.10;;;;;;4982502;28;20460;-71